Time;durP1;ratioP1;P1;durP2;ratioP2;P2;SDS_P1;SDS_P2;PMS_P1;PMS_P2;Temp;Humidity;BMP_temperature;BMP_pressure;BME280_temperature;BME280_humidity;BME280_pressure;Samples;Min_cycle;Max_cycle;Signal;HPM_P1;HPM_P2
2021/06/13 00:01:53;;;;;;;7.70;5.17;;;16.20;87.20;;;;;;5015047;28;21078;-78
2021/06/13 00:04:21;;;;;;;6.97;4.80;;;16.10;86.80;;;;;;5013218;28;20432;-77
2021/06/13 00:06:52;;;;;;;9.20;6.20;;;16.00;87.30;;;;;;5012906;28;20467;-77
2021/06/13 00:09:22;;;;;;;7.53;5.13;;;16.10;87.90;;;;;;5011861;28;20479;-76
2021/06/13 00:11:50;;;;;;;6.63;4.77;;;16.00;88.10;;;;;;5012946;28;20450;-76
2021/06/13 00:14:18;;;;;;;8.00;4.80;;;16.00;88.90;;;;;;5012930;28;20833;-74
2021/06/13 00:16:45;;;;;;;9.03;5.13;;;16.00;88.20;;;;;;5012065;28;20469;-75
2021/06/13 00:19:12;;;;;;;8.00;5.23;;;16.00;88.80;;;;;;5012372;28;20482;-73
2021/06/13 00:21:39;;;;;;;14.20;6.17;;;15.90;88.40;;;;;;5012126;28;20479;-74
2021/06/13 00:24:07;;;;;;;8.33;4.43;;;15.90;89.10;;;;;;5012903;28;21317;-77
2021/06/13 00:26:35;;;;;;;10.80;6.27;;;15.90;89.10;;;;;;5012323;28;20466;-76
2021/06/13 00:29:03;;;;;;;8.17;5.00;;;16.00;89.10;;;;;;5012077;28;20983;-75
2021/06/13 00:31:30;;;;;;;7.07;5.30;;;16.00;88.60;;;;;;5026899;28;20521;-77
2021/06/13 00:33:57;;;;;;;11.70;5.30;;;16.00;88.90;;;;;;5012738;28;20426;-79
2021/06/13 00:36:26;;;;;;;9.53;5.07;;;16.00;88.60;;;;;;5024520;28;20839;-78
2021/06/13 00:38:53;;;;;;;8.30;5.67;;;16.00;88.40;;;;;;5022543;28;20470;-78
2021/06/13 00:41:22;;;;;;;7.43;5.33;;;16.00;88.30;;;;;;5031455;28;20471;-77
2021/06/13 00:43:49;;;;;;;7.57;5.10;;;16.00;88.10;;;;;;5032176;28;20423;-77
2021/06/13 00:46:16;;;;;;;7.30;4.90;;;15.90;88.60;;;;;;5031215;28;20474;-77
2021/06/13 00:48:44;;;;;;;10.93;5.37;;;15.90;88.70;;;;;;5034338;28;20450;-76
2021/06/13 00:51:10;;;;;;;7.10;5.03;;;15.80;89.00;;;;;;5030216;28;20464;-76
2021/06/13 00:53:37;;;;;;;6.47;4.63;;;15.90;88.90;;;;;;5028854;28;20802;-77
2021/06/13 00:56:08;;;;;;;6.10;5.03;;;15.80;88.60;;;;;;5052482;28;20948;-76
2021/06/13 00:58:37;;;;;;;14.13;5.50;;;15.80;89.00;;;;;;5050481;28;20619;-77
2021/06/13 01:01:04;;;;;;;9.60;5.43;;;15.70;88.90;;;;;;5030083;28;20472;-76
2021/06/13 01:03:36;;;;;;;9.00;4.73;;;15.70;88.90;;;;;;5012137;28;20968;-78
2021/06/13 01:06:03;;;;;;;8.83;5.87;;;15.60;88.80;;;;;;5010353;28;21713;-77
2021/06/13 01:09:02;;;;;;;6.40;5.17;;;15.60;88.80;;;;;;5010587;28;20455;-76
2021/06/13 01:11:59;;;;;;;11.67;5.33;;;15.50;89.10;;;;;;5010313;28;20537;-76
2021/06/13 01:15:03;;;;;;;7.73;5.50;;;15.50;89.90;;;;;;5009968;28;20438;-78
2021/06/13 01:17:37;;;;;;;7.50;4.80;;;15.50;89.90;;;;;;5011975;28;20521;-75
2021/06/13 01:20:27;;;;;;;8.90;5.00;;;15.50;89.90;;;;;;5009615;28;20481;-76
2021/06/13 01:23:26;;;;;;;8.93;5.60;;;15.40;89.90;;;;;;5024306;28;20510;-76
2021/06/13 01:26:14;;;;;;;10.13;5.37;;;15.40;89.90;;;;;;5026446;28;20459;-77
2021/06/13 01:29:18;;;;;;;7.20;5.77;;;15.30;90.10;;;;;;5026562;28;20492;-77
2021/06/13 01:31:55;;;;;;;6.97;4.87;;;15.10;90.40;;;;;;5011588;28;20972;-76
2021/06/13 01:34:30;;;;;;;9.13;5.60;;;15.00;90.50;;;;;;5010749;28;20517;-77
2021/06/13 01:37:03;;;;;;;8.87;5.60;;;15.00;90.60;;;;;;5020173;28;20451;-78
2021/06/13 01:39:35;;;;;;;7.97;5.20;;;14.90;90.80;;;;;;5030335;28;20515;-75
2021/06/13 01:42:09;;;;;;;9.43;5.10;;;14.90;90.90;;;;;;5029748;28;20502;-76
2021/06/13 01:44:45;;;;;;;8.57;5.90;;;14.90;90.90;;;;;;5028925;28;20879;-79
2021/06/13 01:47:18;;;;;;;6.93;5.47;;;14.90;90.90;;;;;;5025142;28;20497;-78
2021/06/13 01:49:46;;;;;;;9.80;5.53;;;14.80;91.10;;;;;;5009288;28;20922;-76
2021/06/13 01:52:14;;;;;;;7.43;4.73;;;14.80;91.20;;;;;;5010973;28;20470;-77
2021/06/13 01:54:42;;;;;;;8.50;5.23;;;14.80;90.70;;;;;;5041721;28;20874;-75
2021/06/13 01:57:10;;;;;;;9.90;5.03;;;14.60;91.20;;;;;;5048517;28;20854;-77
2021/06/13 01:59:58;;;;;;;7.70;5.17;;;14.60;91.30;;;;;;5048746;28;20510;-74
2021/06/13 02:02:35;;;;;;;11.63;6.30;;;14.60;91.40;;;;;;5028468;28;20476;-78
2021/06/13 02:05:04;;;;;;;7.80;5.13;;;14.30;92.50;;;;;;5013051;28;20948;-75
2021/06/13 02:07:37;;;;;;;8.77;4.73;;;14.40;92.00;;;;;;5016867;28;21002;-75
2021/06/13 02:10:08;;;;;;;12.03;5.47;;;14.30;92.20;;;;;;5013130;28;20487;-76
2021/06/13 02:12:41;;;;;;;6.90;5.00;;;14.30;92.30;;;;;;5012184;28;20446;-75
2021/06/13 02:15:11;;;;;;;10.90;6.23;;;14.30;92.30;;;;;;5026859;28;20537;-76
2021/06/13 02:17:46;;;;;;;8.77;5.27;;;14.30;92.10;;;;;;5034596;28;20550;-75
2021/06/13 02:20:17;;;;;;;10.70;5.70;;;14.30;92.30;;;;;;5032343;28;20464;-77
2021/06/13 02:22:45;;;;;;;6.50;5.83;;;14.30;92.50;;;;;;4999527;28;20999;-77
2021/06/13 02:25:18;;;;;;;8.70;5.93;;;14.30;92.70;;;;;;5013134;28;20461;-77
2021/06/13 02:27:46;;;;;;;6.33;5.50;;;14.30;92.70;;;;;;4995771;28;20812;-76
2021/06/13 02:30:17;;;;;;;11.03;5.57;;;14.30;92.70;;;;;;5012801;28;20560;-77
2021/06/13 02:32:45;;;;;;;9.97;5.97;;;14.30;92.80;;;;;;5011522;28;20871;-75
2021/06/13 02:35:17;;;;;;;7.70;5.87;;;14.30;92.80;;;;;;5011339;28;20460;-77
2021/06/13 02:37:51;;;;;;;10.60;6.23;;;14.30;92.70;;;;;;5027296;28;20880;-76
2021/06/13 02:40:25;;;;;;;7.20;6.00;;;14.30;92.70;;;;;;5030945;28;20555;-78
2021/06/13 02:42:53;;;;;;;6.13;5.00;;;14.20;92.70;;;;;;5031485;28;20483;-74
2021/06/13 02:45:23;;;;;;;9.23;6.30;;;14.20;92.80;;;;;;5031547;28;20471;-74
2021/06/13 02:47:53;;;;;;;11.57;6.47;;;14.20;92.90;;;;;;5012795;28;20536;-76
2021/06/13 02:50:25;;;;;;;7.17;5.20;;;14.20;92.90;;;;;;5010746;28;20446;-78
2021/06/13 02:52:53;;;;;;;13.13;6.30;;;14.20;92.90;;;;;;5016008;28;20472;-77
2021/06/13 02:55:23;;;;;;;7.13;5.70;;;14.10;92.90;;;;;;5051784;28;20461;-76
2021/06/13 02:57:59;;;;;;;9.87;6.17;;;14.10;92.80;;;;;;5051064;28;20455;-76
2021/06/13 03:00:28;;;;;;;7.80;6.10;;;14.10;92.80;;;;;;5034227;28;20793;-77
2021/06/13 03:02:58;;;;;;;9.17;5.90;;;14.10;93.00;;;;;;5015125;28;20841;-78
2021/06/13 03:05:27;;;;;;;9.40;5.70;;;14.10;93.10;;;;;;5031566;28;20460;-76
2021/06/13 03:07:57;;;;;;;7.90;5.20;;;14.00;93.30;;;;;;5013593;28;20512;-77
2021/06/13 03:10:27;;;;;;;12.47;6.20;;;14.00;93.40;;;;;;5010557;28;20883;-74
2021/06/13 03:12:57;;;;;;;9.73;6.43;;;14.00;93.50;;;;;;5011311;28;20437;-75
2021/06/13 03:15:26;;;;;;;6.87;5.90;;;14.00;93.60;;;;;;5010850;28;21002;-77
2021/06/13 03:17:55;;;;;;;9.43;6.30;;;14.00;93.50;;;;;;5010956;28;20458;-77
2021/06/13 03:20:24;;;;;;;6.27;5.63;;;13.90;93.60;;;;;;5010732;28;20464;-77
2021/06/13 03:22:55;;;;;;;7.50;5.77;;;14.00;93.60;;;;;;5011230;28;20596;-77
2021/06/13 03:25:24;;;;;;;10.93;6.50;;;13.90;93.70;;;;;;5010395;28;20844;-75
2021/06/13 03:27:53;;;;;;;12.13;6.20;;;13.90;93.80;;;;;;5011670;28;20477;-78
2021/06/13 03:30:23;;;;;;;11.00;6.27;;;13.90;93.80;;;;;;5010674;28;20475;-75
2021/06/13 03:32:57;;;;;;;8.43;7.17;;;13.90;93.80;;;;;;5012178;28;20490;-76
2021/06/13 03:35:27;;;;;;;11.57;7.63;;;13.90;94.20;;;;;;5010412;28;20473;-74
2021/06/13 03:37:55;;;;;;;10.23;6.60;;;14.00;94.70;;;;;;5011431;28;20540;-74
2021/06/13 03:40:25;;;;;;;12.33;6.77;;;14.00;94.10;;;;;;5020511;28;20503;-75
2021/06/13 03:42:53;;;;;;;10.20;6.60;;;14.00;94.20;;;;;;5031991;28;20981;-75
2021/06/13 03:45:23;;;;;;;17.33;8.27;;;14.00;94.20;;;;;;5032508;28;21014;-74
2021/06/13 03:47:52;;;;;;;12.67;6.67;;;14.10;93.90;;;;;;5032491;28;20547;-74
2021/06/13 03:50:19;;;;;;;10.70;6.93;;;14.10;94.10;;;;;;5021445;28;20480;-73
2021/06/13 03:52:47;;;;;;;9.17;6.83;;;14.10;94.10;;;;;;5013764;28;20468;-74
2021/06/13 03:55:14;;;;;;;8.90;6.17;;;14.10;94.90;;;;;;5051127;28;20833;-74
2021/06/13 03:57:44;;;;;;;9.30;6.10;;;14.10;94.30;;;;;;5033715;28;21043;-75
2021/06/13 04:00:13;;;;;;;9.90;6.47;;;14.10;94.40;;;;;;5034521;28;20543;-76
2021/06/13 04:02:46;;;;;;;10.63;6.87;;;14.00;94.50;;;;;;5012022;28;20461;-75
2021/06/13 04:05:15;;;;;;;7.10;6.40;;;14.00;94.60;;;;;;5011497;28;20474;-78
2021/06/13 04:07:42;;;;;;;9.47;6.50;;;14.00;94.70;;;;;;5010677;28;20496;-75
2021/06/13 04:10:12;;;;;;;8.60;7.00;;;14.00;95.70;;;;;;5009880;28;20469;-74
2021/06/13 04:12:40;;;;;;;12.57;6.77;;;13.90;95.20;;;;;;5010637;28;20798;-77
2021/06/13 04:15:08;;;;;;;11.47;6.87;;;13.80;95.80;;;;;;5011111;28;20899;-75
2021/06/13 04:17:38;;;;;;;12.30;6.57;;;13.80;96.40;;;;;;5010297;28;20445;-76
2021/06/13 04:20:06;;;;;;;7.77;6.90;;;13.80;96.00;;;;;;5009821;28;20826;-77
2021/06/13 04:22:35;;;;;;;10.87;6.53;;;13.80;96.60;;;;;;5010904;28;20464;-75
2021/06/13 04:25:02;;;;;;;7.10;6.07;;;13.80;96.80;;;;;;5011151;28;20532;-76
2021/06/13 04:27:30;;;;;;;12.00;7.17;;;13.80;96.70;;;;;;5026436;28;20453;-76
2021/06/13 04:30:00;;;;;;;8.10;6.70;;;13.90;97.30;;;;;;5009984;28;20523;-74
2021/06/13 04:32:28;;;;;;;10.30;6.83;;;13.90;96.90;;;;;;5025594;28;20452;-77
2021/06/13 04:34:55;;;;;;;11.77;7.23;;;14.00;97.50;;;;;;5026246;28;20478;-75
2021/06/13 04:37:23;;;;;;;10.30;7.10;;;14.00;97.30;;;;;;5028183;28;20451;-75
2021/06/13 04:39:49;;;;;;;17.17;8.00;;;14.00;97.60;;;;;;5014394;28;20491;-75
2021/06/13 04:42:16;;;;;;;15.23;7.90;;;14.20;97.70;;;;;;5034757;28;20456;-75
2021/06/13 04:44:43;;;;;;;15.50;7.40;;;14.20;97.80;;;;;;5034453;28;20515;-74
2021/06/13 04:47:10;;;;;;;15.20;7.40;;;14.20;97.60;;;;;;5032999;28;20833;-76
2021/06/13 04:49:53;;;;;;;8.50;7.30;;;14.20;97.30;;;;;;5034347;28;20458;-77
2021/06/13 04:52:22;;;;;;;17.00;8.70;;;14.20;98.10;;;;;;5021131;28;20453;-75
2021/06/13 04:54:49;;;;;;;13.53;7.57;;;14.20;98.20;;;;;;5049298;28;20450;-75
2021/06/13 04:57:30;;;;;;;12.37;8.17;;;14.20;98.00;;;;;;5052781;28;20816;-76
2021/06/13 04:59:56;;;;;;;15.03;8.50;;;14.20;98.00;;;;;;5042681;28;20981;-77
2021/06/13 05:02:23;;;;;;;17.83;9.60;;;14.30;98.30;;;;;;5014789;28;20461;-78
2021/06/13 05:04:53;;;;;;;14.47;8.70;;;14.30;98.30;;;;;;5013965;28;20511;-77
2021/06/13 05:07:22;;;;;;;15.23;8.17;;;14.40;99.10;;;;;;5023678;28;20809;-76
2021/06/13 05:09:49;;;;;;;10.87;8.40;;;14.40;98.50;;;;;;5035039;28;20578;-75
2021/06/13 05:12:15;;;;;;;14.93;9.67;;;14.40;98.50;;;;;;5034106;28;20425;-74
2021/06/13 05:14:42;;;;;;;14.27;8.77;;;14.50;98.90;;;;;;5033674;28;20423;-76
2021/06/13 05:17:09;;;;;;;13.30;7.80;;;14.40;99.40;;;;;;5016408;28;20445;-75
2021/06/13 05:19:36;;;;;;;10.07;8.60;;;14.50;99.60;;;;;;5013855;28;20429;-77
2021/06/13 05:22:07;;;;;;;14.90;9.17;;;14.50;98.80;;;;;;5019856;28;20449;-75
2021/06/13 05:24:35;;;;;;;20.53;8.70;;;14.50;98.70;;;;;;5029052;28;20430;-75
2021/06/13 05:27:03;;;;;;;13.70;9.27;;;14.40;98.40;;;;;;5029524;28;20949;-75
2021/06/13 05:29:31;;;;;;;13.93;7.93;;;14.50;98.60;;;;;;5018771;28;20461;-75
2021/06/13 05:31:58;;;;;;;18.60;8.63;;;14.50;98.50;;;;;;5034021;28;20431;-74
2021/06/13 05:34:25;;;;;;;14.77;8.77;;;14.60;98.20;;;;;;5033768;28;21018;-76
2021/06/13 05:36:52;;;;;;;14.80;9.03;;;14.70;98.50;;;;;;5024287;28;20445;-76
2021/06/13 05:39:19;;;;;;;15.13;7.90;;;14.70;98.20;;;;;;5012670;28;20584;-75
2021/06/13 05:41:45;;;;;;;13.10;7.27;;;14.80;98.50;;;;;;5013518;28;20474;-78
2021/06/13 05:44:12;;;;;;;12.20;8.97;;;14.90;98.50;;;;;;5012955;28;20474;-77
2021/06/13 05:46:40;;;;;;;13.47;8.47;;;15.00;98.20;;;;;;5012234;28;20553;-77
2021/06/13 05:49:07;;;;;;;19.63;8.87;;;15.10;97.50;;;;;;5012541;28;20462;-76
2021/06/13 05:51:34;;;;;;;16.27;9.60;;;15.20;97.00;;;;;;5012776;28;20475;-76
2021/06/13 05:54:01;;;;;;;13.17;9.40;;;15.20;97.20;;;;;;5034176;28;20430;-78
2021/06/13 05:56:28;;;;;;;13.57;9.07;;;15.30;97.20;;;;;;5052726;28;20473;-78
2021/06/13 05:58:55;;;;;;;13.10;8.57;;;15.40;96.70;;;;;;5052056;28;20537;-74
2021/06/13 06:01:22;;;;;;;13.73;8.93;;;15.50;96.60;;;;;;5038051;28;20538;-75
2021/06/13 06:03:49;;;;;;;17.60;10.20;;;15.60;95.90;;;;;;5012291;28;20507;-75
2021/06/13 06:06:16;;;;;;;20.40;9.90;;;15.80;95.80;;;;;;5013446;28;20479;-75
2021/06/13 06:08:43;;;;;;;14.90;8.77;;;16.00;95.90;;;;;;5011941;28;21029;-78
2021/06/13 06:11:10;;;;;;;18.20;8.40;;;16.50;94.40;;;;;;5012968;28;20465;-76
2021/06/13 06:13:37;;;;;;;14.60;7.10;;;17.20;92.70;;;;;;5013455;28;20953;-75
2021/06/13 06:16:04;;;;;;;13.13;7.70;;;17.60;90.80;;;;;;5013236;28;20470;-78
2021/06/13 06:18:31;;;;;;;11.13;8.30;;;18.30;86.80;;;;;;5011734;28;20463;-77
2021/06/13 06:20:58;;;;;;;21.20;9.77;;;18.70;81.00;;;;;;5012435;28;20558;-78
2021/06/13 06:23:25;;;;;;;17.57;9.63;;;18.90;80.70;;;;;;5011890;28;20464;-76
2021/06/13 06:25:55;;;;;;;14.97;8.17;;;19.00;79.00;;;;;;5012839;28;20552;-78
2021/06/13 06:28:21;;;;;;;11.83;6.70;;;18.90;78.00;;;;;;5011732;28;20445;-75
2021/06/13 06:30:48;;;;;;;7.87;6.33;;;18.90;78.70;;;;;;5012506;28;20469;-78
2021/06/13 06:33:15;;;;;;;10.57;7.60;;;18.90;76.70;;;;;;5013140;28;20426;-77
2021/06/13 06:35:42;;;;;;;13.93;9.07;;;18.80;76.90;;;;;;5012103;28;20477;-77
2021/06/13 06:38:09;;;;;;;13.20;8.63;;;18.80;77.50;;;;;;5015005;28;20468;-74
2021/06/13 06:40:36;;;;;;;10.40;8.20;;;18.80;77.30;;;;;;5014873;28;20462;-75
2021/06/13 06:43:03;;;;;;;12.57;7.50;;;18.80;77.00;;;;;;5013582;28;20476;-78
2021/06/13 06:45:30;;;;;;;16.20;7.30;;;18.90;77.40;;;;;;5012289;28;20456;-78
2021/06/13 06:47:57;;;;;;;13.43;7.40;;;18.80;78.20;;;;;;5019354;28;20448;-78
2021/06/13 06:50:24;;;;;;;10.77;6.07;;;18.70;78.70;;;;;;5026359;28;20452;-76
2021/06/13 06:52:51;;;;;;;11.73;6.30;;;18.80;76.50;;;;;;5031950;28;20439;-78
2021/06/13 06:55:19;;;;;;;9.77;6.80;;;18.80;74.60;;;;;;5036008;28;20459;-76
2021/06/13 06:57:46;;;;;;;12.80;5.50;;;18.80;75.80;;;;;;5052444;28;20849;-77
2021/06/13 07:00:15;;;;;;;11.70;6.43;;;18.80;76.10;;;;;;5047286;28;20450;-77
2021/06/13 07:02:43;;;;;;;10.90;6.27;;;18.80;77.50;;;;;;5011994;28;20442;-77
2021/06/13 07:05:11;;;;;;;7.03;5.10;;;18.90;75.90;;;;;;5011849;28;20461;-78
2021/06/13 07:07:38;;;;;;;7.47;5.27;;;18.90;73.90;;;;;;5032785;28;21079;-77
2021/06/13 07:10:07;;;;;;;9.87;6.00;;;19.00;73.80;;;;;;5051765;28;20451;-78
2021/06/13 07:12:34;;;;;;;15.53;7.33;;;19.00;75.20;;;;;;5052090;28;20415;-78
2021/06/13 07:15:03;;;;;;;11.00;6.60;;;18.80;73.80;;;;;;5040075;28;20807;-78
2021/06/13 07:17:29;;;;;;;12.40;5.97;;;19.00;74.00;;;;;;5010714;28;20441;-80
2021/06/13 07:19:56;;;;;;;9.50;5.63;;;19.00;74.40;;;;;;5011582;28;20527;-76
2021/06/13 07:22:23;;;;;;;16.13;7.90;;;18.90;73.80;;;;;;5023827;28;20441;-79
2021/06/13 07:24:52;;;;;;;11.53;6.47;;;18.80;75.40;;;;;;5031648;28;20492;-78
2021/06/13 07:27:20;;;;;;;12.87;6.10;;;19.00;74.70;;;;;;5030623;28;20479;-75
2021/06/13 07:29:48;;;;;;;6.80;6.00;;;19.00;75.10;;;;;;5031242;28;20863;-79
2021/06/13 07:32:18;;;;;;;8.20;5.87;;;19.00;77.70;;;;;;5018214;28;20460;-79
2021/06/13 07:34:46;;;;;;;12.87;6.60;;;19.00;76.10;;;;;;4994164;28;20457;-80
2021/06/13 07:37:13;;;;;;;12.80;6.30;;;19.10;76.80;;;;;;5012344;28;20446;-80
2021/06/13 07:39:40;;;;;;;16.20;6.47;;;19.10;75.00;;;;;;5010537;28;20440;-77
2021/06/13 07:42:08;;;;;;;8.27;5.83;;;19.20;73.00;;;;;;5012145;28;20426;-80
2021/06/13 07:44:36;;;;;;;11.30;7.03;;;19.30;72.30;;;;;;5029842;28;21001;-79
2021/06/13 07:47:03;;;;;;;10.73;5.73;;;19.40;71.80;;;;;;5015128;28;20438;-79
2021/06/13 07:49:31;;;;;;;16.07;7.60;;;19.30;74.30;;;;;;5010319;28;20447;-78
2021/06/13 07:51:59;;;;;;;7.50;6.10;;;19.30;71.60;;;;;;5020820;28;20449;-78
2021/06/13 07:54:29;;;;;;;13.43;8.20;;;19.40;70.40;;;;;;5030885;28;20518;-80
2021/06/13 07:56:58;;;;;;;7.80;6.00;;;19.60;72.60;;;;;;5031643;28;20431;-79
2021/06/13 07:59:25;;;;;;;15.07;5.77;;;19.60;72.90;;;;;;5031338;28;20497;-80
2021/06/13 08:01:52;;;;;;;9.30;5.87;;;19.60;71.10;;;;;;5017680;28;20856;-78
2021/06/13 08:04:19;;;;;;;12.77;6.13;;;19.70;69.90;;;;;;5011920;28;20466;-79
2021/06/13 08:06:46;;;;;;;8.80;5.10;;;19.90;68.90;;;;;;5011289;28;20832;-77
2021/06/13 08:09:13;;;;;;;9.37;5.93;;;20.00;66.30;;;;;;5011694;28;20532;-80
2021/06/13 08:11:40;;;;;;;9.43;4.77;;;20.10;64.50;;;;;;5011343;28;20471;-78
2021/06/13 08:14:07;;;;;;;10.27;4.83;;;20.10;64.90;;;;;;5027494;28;20807;-78
2021/06/13 08:16:34;;;;;;;14.40;5.50;;;20.20;64.20;;;;;;5015578;28;20841;-77
2021/06/13 08:19:02;;;;;;;17.00;6.33;;;20.30;66.00;;;;;;5018562;28;20448;-75
2021/06/13 08:21:29;;;;;;;6.47;4.20;;;20.30;64.90;;;;;;5018510;28;20467;-79
2021/06/13 08:23:56;;;;;;;12.20;4.50;;;20.30;64.20;;;;;;5017221;28;20464;-79
2021/06/13 08:26:24;;;;;;;8.80;5.60;;;20.20;64.20;;;;;;5016097;28;20665;-78
2021/06/13 08:28:51;;;;;;;8.80;4.70;;;20.40;65.90;;;;;;5016033;28;20452;-79
2021/06/13 08:31:18;;;;;;;8.47;5.47;;;20.60;64.50;;;;;;5015160;28;20970;-78
2021/06/13 08:33:45;;;;;;;14.23;5.43;;;20.70;67.40;;;;;;5014076;28;20532;-77
2021/06/13 08:36:12;;;;;;;9.40;5.07;;;20.70;64.60;;;;;;5014944;28;20477;-79
2021/06/13 08:38:39;;;;;;;12.03;5.00;;;20.70;61.70;;;;;;5015037;28;20552;-81
2021/06/13 08:41:06;;;;;;;8.43;4.87;;;20.80;62.20;;;;;;5033084;28;20566;-79
2021/06/13 08:43:33;;;;;;;8.40;4.60;;;20.90;62.90;;;;;;5036314;28;20462;-81
2021/06/13 08:46:04;;;;;;;7.73;4.90;;;20.90;61.50;;;;;;5030716;28;20469;-78
2021/06/13 08:48:32;;;;;;;6.17;4.30;;;21.00;59.50;;;;;;5014883;28;20447;-80
2021/06/13 08:51:00;;;;;;;9.50;5.97;;;20.80;62.30;;;;;;5014405;28;20467;-81
2021/06/13 08:53:27;;;;;;;9.50;5.57;;;20.90;62.30;;;;;;5015162;28;20791;-80
2021/06/13 08:55:54;;;;;;;10.23;5.30;;;20.90;62.60;;;;;;5014350;28;20998;-79
2021/06/13 08:58:21;;;;;;;5.50;4.70;;;20.90;63.10;;;;;;5014895;28;20978;-81
2021/06/13 09:00:50;;;;;;;9.33;5.47;;;20.90;62.50;;;;;;5021188;28;20552;-81
2021/06/13 09:03:19;;;;;;;11.53;5.90;;;20.90;61.90;;;;;;5033363;28;20786;-82
2021/06/13 09:05:46;;;;;;;12.80;5.03;;;20.90;59.20;;;;;;5032448;28;20460;-77
2021/06/13 09:08:14;;;;;;;7.27;5.47;;;20.90;63.10;;;;;;5014301;28;20934;-81
2021/06/13 09:10:43;;;;;;;9.63;4.90;;;20.90;62.30;;;;;;5014368;28;20460;-81
2021/06/13 09:13:19;;;;;;;6.77;5.00;;;21.00;61.10;;;;;;5014485;28;20427;-80
2021/06/13 09:15:58;;;;;;;11.37;5.50;;;21.10;61.80;;;;;;5012939;28;20457;-77
2021/06/13 09:18:46;;;;;;;12.50;5.17;;;21.10;64.10;;;;;;5013115;28;20814;-81
2021/06/13 09:21:14;;;;;;;13.57;4.97;;;21.00;61.30;;;;;;5013605;28;20554;-80
2021/06/13 09:23:42;;;;;;;11.53;5.47;;;21.10;63.00;;;;;;5013039;28;21005;-80
2021/06/13 09:26:18;;;;;;;12.60;5.60;;;21.00;61.10;;;;;;5013205;28;20484;-80
2021/06/13 09:28:47;;;;;;;6.87;4.97;;;20.90;59.80;;;;;;5013987;28;21126;-79
2021/06/13 09:31:17;;;;;;;9.50;4.27;;;21.00;61.10;;;;;;5013422;28;20470;-81
2021/06/13 09:33:45;;;;;;;6.40;4.53;;;21.10;58.70;;;;;;5014387;28;20448;-79
2021/06/13 09:36:17;;;;;;;7.53;4.63;;;21.30;58.60;;;;;;5013153;28;20469;-82
2021/06/13 09:38:46;;;;;;;7.07;4.20;;;21.40;60.30;;;;;;5013937;28;20453;-80
2021/06/13 09:41:17;;;;;;;5.17;4.13;;;21.60;60.60;;;;;;5013607;28;20465;-80
2021/06/13 09:43:50;;;;;;;15.43;5.40;;;21.70;59.90;;;;;;5020141;28;20809;-80
2021/06/13 09:46:19;;;;;;;7.77;5.67;;;21.80;56.40;;;;;;5012497;28;20468;-78
2021/06/13 09:48:47;;;;;;;9.80;6.00;;;21.80;55.60;;;;;;5013908;28;20469;-80
2021/06/13 09:51:20;;;;;;;9.23;5.37;;;22.00;54.20;;;;;;5019202;28;20470;-78
2021/06/13 09:53:56;;;;;;;7.87;5.17;;;22.00;54.00;;;;;;5012827;28;20428;-79
2021/06/13 09:56:34;;;;;;;7.60;4.23;;;22.00;53.50;;;;;;5013327;28;20544;-80
2021/06/13 09:59:10;;;;;;;7.53;4.53;;;22.00;53.80;;;;;;5013683;28;20509;-78
2021/06/13 10:01:41;;;;;;;12.40;4.60;;;22.30;56.70;;;;;;5013215;28;20564;-79
2021/06/13 10:04:27;;;;;;;10.07;4.70;;;22.20;55.40;;;;;;5013710;28;20500;-77
2021/06/13 10:07:01;;;;;;;6.27;3.97;;;22.00;53.20;;;;;;5012931;28;20504;-78
2021/06/13 10:09:45;;;;;;;7.60;4.50;;;22.00;55.10;;;;;;5043377;28;20454;-80
2021/06/13 10:12:16;;;;;;;12.17;4.93;;;22.00;52.90;;;;;;5035640;28;20466;-78
2021/06/13 10:14:43;;;;;;;10.03;4.90;;;22.20;54.90;;;;;;5035424;28;20505;-78
2021/06/13 10:17:10;;;;;;;7.80;4.23;;;22.30;52.50;;;;;;4995755;28;20425;-79
2021/06/13 10:19:43;;;;;;;7.17;4.63;;;22.30;52.90;;;;;;5015400;28;20436;-75
2021/06/13 10:22:12;;;;;;;10.97;5.27;;;22.20;52.80;;;;;;5017264;28;20469;-77
2021/06/13 10:24:42;;;;;;;7.23;4.83;;;22.30;51.80;;;;;;5014564;28;20470;-79
2021/06/13 10:27:14;;;;;;;8.20;5.97;;;22.30;49.80;;;;;;5012258;28;20434;-77
2021/06/13 10:29:44;;;;;;;7.70;5.33;;;22.50;51.70;;;;;;5012965;28;20418;-75
2021/06/13 10:32:12;;;;;;;13.57;6.93;;;22.70;51.20;;;;;;5014015;28;20448;-78
2021/06/13 10:34:39;;;;;;;10.40;6.80;;;22.60;50.90;;;;;;5011843;28;20424;-77
2021/06/13 10:37:08;;;;;;;11.53;5.80;;;22.60;50.70;;;;;;5013492;28;20531;-79
2021/06/13 10:39:36;;;;;;;9.47;5.63;;;22.80;48.40;;;;;;5027418;28;20448;-77
2021/06/13 10:42:09;;;;;;;10.07;5.20;;;22.90;51.10;;;;;;5012045;28;20425;-80
2021/06/13 10:45:03;;;;;;;7.17;5.10;;;22.90;49.30;;;;;;5029696;28;20473;-78
2021/06/13 10:47:30;;;;;;;6.97;5.00;;;23.00;50.50;;;;;;5008407;28;20459;-78
2021/06/13 10:50:04;;;;;;;10.00;5.40;;;23.10;49.60;;;;;;5011280;28;20445;-80
2021/06/13 10:52:31;;;;;;;7.67;5.50;;;23.00;50.70;;;;;;5012728;28;20441;-78
2021/06/13 10:55:00;;;;;;;8.80;5.00;;;22.90;49.90;;;;;;5012382;28;20538;-78
2021/06/13 10:57:38;;;;;;;14.60;5.63;;;23.10;50.50;;;;;;5023969;28;20475;-78
2021/06/13 11:00:27;;;;;;;12.13;5.37;;;23.10;51.30;;;;;;5050106;28;20446;-79
2021/06/13 11:03:00;;;;;;;14.87;5.80;;;23.10;50.50;;;;;;5018829;28;20480;-77
2021/06/13 11:05:38;;;;;;;9.60;5.30;;;23.20;50.30;;;;;;5033539;28;21055;-80
2021/06/13 11:08:05;;;;;;;9.23;4.90;;;23.30;50.30;;;;;;5013427;28;20474;-80
2021/06/13 11:10:32;;;;;;;7.40;5.60;;;23.40;48.30;;;;;;5049797;28;21005;-80
2021/06/13 11:13:06;;;;;;;10.43;7.57;;;23.60;48.60;;;;;;5050923;28;20475;-79
2021/06/13 11:15:41;;;;;;;10.07;5.60;;;23.70;48.70;;;;;;5036691;28;20846;-78
2021/06/13 11:18:19;;;;;;;8.00;5.40;;;23.80;48.50;;;;;;5010894;28;20651;-80
2021/06/13 11:21:09;;;;;;;8.33;5.17;;;23.90;50.20;;;;;;5017482;28;20465;-78
2021/06/13 11:23:38;;;;;;;9.47;5.10;;;23.90;46.90;;;;;;5012315;28;20826;-78
2021/06/13 11:26:10;;;;;;;6.23;5.07;;;24.10;47.60;;;;;;5011875;28;20467;-80
2021/06/13 11:28:41;;;;;;;9.97;5.57;;;24.10;47.50;;;;;;5011991;28;20467;-78
2021/06/13 11:31:13;;;;;;;10.00;6.57;;;24.00;48.30;;;;;;5010667;28;21059;-78
2021/06/13 11:33:49;;;;;;;10.60;5.57;;;24.00;51.00;;;;;;5012054;28;20427;-78
2021/06/13 11:36:22;;;;;;;10.97;5.70;;;24.10;48.90;;;;;;5011878;28;20469;-79
2021/06/13 11:38:51;;;;;;;7.70;6.03;;;23.90;47.20;;;;;;5026971;28;20968;-80
2021/06/13 11:41:35;;;;;;;8.80;5.23;;;23.70;46.10;;;;;;5026833;28;21124;-78
2021/06/13 11:44:05;;;;;;;8.57;4.80;;;23.60;43.40;;;;;;4994418;28;20458;-80
2021/06/13 11:46:35;;;;;;;8.43;5.23;;;23.70;45.20;;;;;;5024882;28;20477;-78
2021/06/13 11:49:08;;;;;;;6.37;4.70;;;23.70;44.50;;;;;;5031960;28;20436;-79
2021/06/13 11:51:57;;;;;;;6.50;5.10;;;23.90;43.80;;;;;;5029772;28;20467;-80
2021/06/13 11:54:31;;;;;;;8.30;4.70;;;23.90;46.70;;;;;;5016139;28;20518;-78
2021/06/13 11:57:00;;;;;;;11.30;4.63;;;24.00;43.90;;;;;;5016484;28;20454;-79
2021/06/13 11:59:27;;;;;;;6.30;4.73;;;24.10;46.90;;;;;;5054057;28;20451;-79
2021/06/13 12:01:54;;;;;;;8.23;5.40;;;24.20;43.70;;;;;;5020428;28;20459;-78
2021/06/13 12:04:22;;;;;;;10.43;5.43;;;24.10;44.50;;;;;;5031148;28;20870;-78
2021/06/13 12:06:50;;;;;;;12.57;5.60;;;24.20;47.20;;;;;;5022759;28;20468;-78
2021/06/13 12:09:21;;;;;;;8.93;5.03;;;24.20;45.90;;;;;;5035350;28;20446;-79
2021/06/13 12:11:54;;;;;;;7.80;5.30;;;24.30;45.30;;;;;;5033679;28;20916;-79
2021/06/13 12:14:33;;;;;;;6.90;4.60;;;24.30;48.50;;;;;;5034959;28;20426;-78
2021/06/13 12:17:14;;;;;;;9.00;5.47;;;24.40;48.20;;;;;;5015509;28;20443;-77
2021/06/13 12:19:47;;;;;;;8.73;6.00;;;24.50;48.20;;;;;;5015090;28;20419;-78
2021/06/13 12:22:16;;;;;;;7.10;5.10;;;24.50;46.70;;;;;;5014838;28;20448;-80
2021/06/13 12:27:23;;;;;;;10.80;5.50;;;24.60;46.10;;;;;;5015239;28;20426;-81
2021/06/13 12:29:58;;;;;;;11.43;5.60;;;24.70;46.60;;;;;;5014834;28;20455;-79
2021/06/13 12:32:26;;;;;;;6.53;5.00;;;24.60;48.30;;;;;;5015512;28;20426;-78
2021/06/13 12:35:08;;;;;;;8.57;5.07;;;24.60;45.60;;;;;;5013862;28;20992;-81
2021/06/13 12:37:36;;;;;;;10.63;5.43;;;24.50;50.00;;;;;;5015216;28;20474;-79
2021/06/13 12:40:11;;;;;;;8.90;5.03;;;24.80;47.80;;;;;;5016526;28;20439;-78
2021/06/13 12:42:40;;;;;;;8.97;5.07;;;24.80;47.50;;;;;;5001800;28;20428;-78
2021/06/13 12:45:11;;;;;;;10.60;4.80;;;24.90;44.30;;;;;;5017393;28;20702;-79
2021/06/13 12:47:40;;;;;;;7.43;5.07;;;25.00;47.70;;;;;;5016068;28;20441;-82
2021/06/13 12:50:09;;;;;;;7.20;4.60;;;25.00;47.20;;;;;;5015579;28;20455;-80
2021/06/13 12:52:46;;;;;;;7.87;4.00;;;25.00;47.00;;;;;;5030336;28;20454;-80
2021/06/13 12:55:18;;;;;;;7.27;4.80;;;25.00;43.90;;;;;;5033898;28;20493;-80
2021/06/13 12:57:49;;;;;;;6.73;4.80;;;24.90;45.90;;;;;;5041618;28;20537;-80
2021/06/13 13:00:17;;;;;;;9.30;5.10;;;24.90;45.90;;;;;;5052729;28;20976;-82
2021/06/13 13:02:44;;;;;;;8.60;4.80;;;24.80;46.20;;;;;;5012900;28;20815;-78